createdAt,value
2017-06-06T00:00:12.908Z,0
2017-06-06T00:00:58.311Z,0
2017-06-06T00:01:58.336Z,0
2017-06-06T00:03:13.009Z,0
2017-06-06T00:03:58.381Z,0
2017-06-06T00:04:58.419Z,0
2017-06-06T00:05:58.430Z,0
2017-06-06T00:07:13.086Z,0
2017-06-06T00:07:58.477Z,0
2017-06-06T00:08:58.502Z,0
2017-06-06T00:09:58.523Z,0
2017-06-06T00:10:58.550Z,0
2017-06-06T00:12:12.886Z,0
2017-06-06T00:13:13.213Z,0
2017-06-06T00:14:13.253Z,0
2017-06-06T00:14:58.339Z,0
2017-06-06T00:16:58.690Z,0
2017-06-06T00:17:58.714Z,0
2017-06-06T00:18:58.436Z,0
2017-06-06T00:19:58.463Z,0
2017-06-06T00:20:58.489Z,0
2017-06-06T00:22:13.126Z,0
2017-06-06T00:22:58.229Z,0
2017-06-06T00:23:58.860Z,0
2017-06-06T00:24:58.883Z,0
2017-06-06T00:25:58.908Z,0
2017-06-06T00:26:58.961Z,0
2017-06-06T00:28:13.574Z,0
2017-06-06T00:28:58.982Z,0
2017-06-06T00:29:59.009Z,0
2017-06-06T00:31:13.947Z,0
2017-06-06T00:31:59.057Z,0
2017-06-06T00:33:13.697Z,0
2017-06-06T00:33:59.100Z,0
2017-06-06T00:34:59.182Z,0
2017-06-06T00:35:59.148Z,0
2017-06-06T00:37:13.789Z,0
2017-06-06T00:38:13.510Z,0
2017-06-06T00:39:13.532Z,0
2017-06-06T00:40:13.560Z,0
2017-06-06T00:40:59.269Z,0
2017-06-06T00:42:13.608Z,0
2017-06-06T00:42:59.315Z,0
2017-06-06T00:44:13.351Z,0
2017-06-06T00:45:13.980Z,0
2017-06-06T00:45:59.387Z,0
2017-06-06T00:46:59.411Z,0
2017-06-06T00:47:59.132Z,0
2017-06-06T00:48:58.858Z,0
2017-06-06T00:50:59.511Z,0
2017-06-06T00:51:59.532Z,0
2017-06-06T00:52:59.304Z,0
2017-06-06T00:54:14.203Z,0
2017-06-06T00:55:13.916Z,0
2017-06-06T00:55:59.634Z,0
2017-06-06T00:56:59.652Z,0
2017-06-06T00:58:14.343Z,0
2017-06-06T01:00:59.755Z,0
2017-06-06T01:01:59.779Z,0
2017-06-06T01:03:59.820Z,0
2017-06-06T01:04:59.842Z,0
2017-06-06T01:05:59.868Z,0
2017-06-06T01:06:59.898Z,0
2017-06-06T01:07:59.926Z,0
2017-06-06T01:08:59.943Z,0
2017-06-06T01:09:59.966Z,0
2017-06-06T01:11:14.303Z,0
2017-06-06T01:12:00.018Z,0
2017-06-06T01:13:00.036Z,0
2017-06-06T01:14:00.059Z,0
2017-06-06T01:15:00.086Z,0
2017-06-06T01:16:00.111Z,0
2017-06-06T01:17:00.134Z,0
2017-06-06T01:17:59.248Z,0
2017-06-06T01:19:00.178Z,0
2017-06-06T01:20:00.203Z,0
2017-06-06T01:20:59.926Z,0
2017-06-06T01:22:00.255Z,0
2017-06-06T01:23:14.593Z,0
2017-06-06T01:24:00.306Z,0
2017-06-06T01:25:14.941Z,0
2017-06-06T01:26:00.044Z,0
2017-06-06T01:27:14.684Z,0
2017-06-06T01:28:15.011Z,0
2017-06-06T01:29:00.457Z,0
2017-06-06T01:30:00.447Z,0
2017-06-06T01:31:14.793Z,0
2017-06-06T01:32:15.111Z,0
2017-06-06T01:33:00.518Z,0
2017-06-06T01:34:00.541Z,0
2017-06-06T01:35:00.565Z,0
2017-06-06T01:36:00.593Z,0
2017-06-06T01:37:15.257Z,0
2017-06-06T01:38:00.635Z,0
2017-06-06T01:39:15.281Z,0
2017-06-06T01:40:00.383Z,0
2017-06-06T01:41:15.076Z,0
2017-06-06T01:42:15.360Z,0
2017-06-06T01:43:15.075Z,0
2017-06-06T01:44:00.782Z,0
2017-06-06T01:45:00.807Z,0
2017-06-06T01:46:00.830Z,0
2017-06-06T01:47:15.169Z,0
2017-06-06T01:48:00.576Z,0
2017-06-06T01:49:00.902Z,0
2017-06-06T01:51:00.949Z,0
2017-06-06T01:52:00.671Z,0
2017-06-06T01:54:00.721Z,0
2017-06-06T01:55:01.044Z,0
2017-06-06T01:56:00.767Z,0
2017-06-06T01:57:01.099Z,0
2017-06-06T01:58:01.120Z,0
2017-06-06T01:59:01.144Z,0
2017-06-06T02:00:30.400Z,0
2017-06-06T02:02:01.214Z,0
2017-06-06T02:03:15.247Z,0
2017-06-06T02:04:01.260Z,0
2017-06-06T02:05:01.288Z,0
2017-06-06T02:07:15.983Z,0
2017-06-06T02:08:01.358Z,0
2017-06-06T02:09:01.388Z,0
2017-06-06T02:10:01.406Z,0
2017-06-06T02:11:01.431Z,0
2017-06-06T02:12:01.454Z,0
2017-06-06T02:13:01.477Z,0
2017-06-06T02:14:01.503Z,0
2017-06-06T02:15:16.143Z,0
2017-06-06T02:16:16.170Z,0
2017-06-06T02:17:01.574Z,0
2017-06-06T02:18:01.600Z,0
2017-06-06T02:19:15.935Z,0
2017-06-06T02:20:15.958Z,0
2017-06-06T02:21:01.372Z,0
2017-06-06T02:22:01.727Z,0
2017-06-06T02:24:01.439Z,0
2017-06-06T02:25:01.165Z,0
2017-06-06T02:26:16.409Z,0
2017-06-06T02:27:01.814Z,0
2017-06-06T02:28:16.501Z,0
2017-06-06T02:29:31.098Z,0
2017-06-06T02:30:16.199Z,0
2017-06-06T02:31:01.912Z,0
2017-06-06T02:32:01.630Z,0
2017-06-06T02:33:01.958Z,0
2017-06-06T02:34:16.601Z,0
2017-06-06T02:35:02.006Z,0
2017-06-06T02:36:02.030Z,0
2017-06-06T02:37:02.053Z,0
2017-06-06T02:38:02.078Z,0
2017-06-06T02:39:02.108Z,0
2017-06-06T02:41:02.152Z,0
2017-06-06T02:42:02.178Z,0
2017-06-06T02:43:16.512Z,0
2017-06-06T02:44:02.219Z,0
2017-06-06T02:45:02.282Z,0
2017-06-06T02:46:31.503Z,0
2017-06-06T02:47:16.610Z,0
2017-06-06T02:48:16.328Z,0
2017-06-06T02:49:02.342Z,0
2017-06-06T02:50:02.369Z,0
2017-06-06T02:51:17.006Z,0
2017-06-06T02:52:02.413Z,0
2017-06-06T02:53:02.437Z,0
2017-06-06T02:54:17.075Z,0
2017-06-06T02:55:02.490Z,0
2017-06-06T02:56:02.509Z,0
2017-06-06T02:57:02.534Z,5
2017-06-06T02:58:02.607Z,5
2017-06-06T02:59:16.894Z,5
2017-06-06T03:00:02.604Z,5
2017-06-06T03:01:02.629Z,5
2017-06-06T03:02:17.272Z,5
2017-06-06T03:03:02.373Z,5
2017-06-06T03:04:17.319Z,5
2017-06-06T03:05:02.725Z,10
2017-06-06T03:06:17.366Z,10
2017-06-06T03:08:02.800Z,10
2017-06-06T03:09:02.516Z,10
2017-06-06T03:10:02.842Z,15
2017-06-06T03:11:02.870Z,15
2017-06-06T03:12:02.895Z,15
2017-06-06T03:13:02.912Z,15
2017-06-06T03:14:02.945Z,20
2017-06-06T03:15:02.967Z,20
2017-06-06T03:16:17.606Z,25
2017-06-06T03:17:02.709Z,25
2017-06-06T03:18:02.737Z,25
2017-06-06T03:19:03.057Z,30
2017-06-06T03:20:17.701Z,35
2017-06-06T03:21:03.105Z,35
2017-06-06T03:22:17.750Z,40
2017-06-06T03:23:03.154Z,40
2017-06-06T03:24:03.183Z,40
2017-06-06T03:25:03.205Z,40
2017-06-06T03:26:03.226Z,45
2017-06-06T03:27:02.677Z,45
2017-06-06T03:28:02.973Z,45
2017-06-06T03:30:03.323Z,45
2017-06-06T03:31:03.369Z,45
2017-06-06T03:32:17.988Z,50
2017-06-06T03:33:03.091Z,55
2017-06-06T03:34:18.039Z,55
2017-06-06T03:35:18.058Z,55
2017-06-06T03:36:03.467Z,55
2017-06-06T03:37:03.489Z,60
2017-06-06T03:38:18.135Z,65
2017-06-06T03:40:03.564Z,80
2017-06-06T03:41:03.592Z,80
2017-06-06T03:42:03.659Z,65
2017-06-06T03:43:03.633Z,50
2017-06-06T03:44:03.659Z,50
2017-06-06T03:45:03.691Z,50
2017-06-06T03:46:03.707Z,55
2017-06-06T03:47:03.733Z,55
2017-06-06T03:48:18.371Z,55
2017-06-06T03:49:03.778Z,55
2017-06-06T03:50:03.803Z,55
2017-06-06T03:51:03.854Z,60
2017-06-06T03:52:03.545Z,65
2017-06-06T03:53:03.873Z,65
2017-06-06T03:54:18.517Z,70
2017-06-06T03:56:03.644Z,65
2017-06-06T03:57:03.667Z,65
2017-06-06T03:58:03.998Z,60
2017-06-06T03:59:04.018Z,55
2017-06-06T04:00:04.046Z,55
2017-06-06T04:01:04.068Z,55
2017-06-06T04:02:04.097Z,55
2017-06-06T04:03:04.116Z,55
2017-06-06T04:04:04.140Z,55
2017-06-06T04:05:18.781Z,60
2017-06-06T04:06:04.187Z,60
2017-06-06T04:07:18.528Z,60
2017-06-06T04:08:04.242Z,65
2017-06-06T04:09:18.879Z,70
2017-06-06T04:10:03.982Z,75
2017-06-06T04:11:04.314Z,85
2017-06-06T04:12:04.334Z,85
2017-06-06T04:13:04.356Z,320
2017-06-06T04:14:04.378Z,580
2017-06-06T04:16:04.434Z,290
2017-06-06T04:17:04.454Z,400
2017-06-06T04:18:04.481Z,510
2017-06-06T04:19:04.509Z,460
2017-06-06T04:20:04.531Z,660
2017-06-06T04:21:04.554Z,735
2017-06-06T04:22:04.580Z,760
2017-06-06T04:23:04.605Z,620
2017-06-06T04:24:04.329Z,395
2017-06-06T04:25:04.355Z,755
2017-06-06T04:26:04.381Z,510
2017-06-06T04:27:04.715Z,510
2017-06-06T04:28:04.432Z,185
2017-06-06T04:29:04.457Z,165
2017-06-06T04:30:04.827Z,180
2017-06-06T04:31:04.817Z,310
2017-06-06T04:32:04.846Z,710
2017-06-06T04:33:04.565Z,600
2017-06-06T04:34:19.210Z,925
2017-06-06T04:35:19.538Z,940
2017-06-06T04:36:04.648Z,975
2017-06-06T04:37:04.975Z,750
2017-06-06T04:38:19.622Z,730
2017-06-06T04:39:04.727Z,305
2017-06-06T04:40:05.067Z,295
2017-06-06T04:41:19.397Z,525
2017-06-06T04:42:19.729Z,375
2017-06-06T04:43:05.142Z,225
2017-06-06T04:44:19.782Z,205
2017-06-06T04:45:05.194Z,815
2017-06-06T04:46:05.226Z,200
2017-06-06T04:47:05.253Z,250
2017-06-06T04:48:05.274Z,215
2017-06-06T04:49:04.999Z,195
2017-06-06T04:50:05.331Z,195
2017-06-06T04:51:05.356Z,215
2017-06-06T04:52:05.085Z,280
2017-06-06T04:53:05.413Z,255
2017-06-06T04:54:34.673Z,420
2017-06-06T04:55:20.084Z,345
2017-06-06T04:56:05.494Z,260
2017-06-06T04:57:20.147Z,300
2017-06-06T04:58:05.548Z,620
2017-06-06T04:59:04.965Z,340
2017-06-06T05:00:05.600Z,270
2017-06-06T05:01:05.626Z,430
2017-06-06T05:02:19.979Z,860
2017-06-06T05:03:05.678Z,285
2017-06-06T05:04:05.707Z,260
2017-06-06T05:05:05.735Z,305
2017-06-06T05:06:05.763Z,315
2017-06-06T05:07:05.521Z,300
2017-06-06T05:08:05.816Z,315
2017-06-06T05:09:05.843Z,460
2017-06-06T05:10:05.873Z,250
2017-06-06T05:11:05.901Z,245
2017-06-06T05:12:05.619Z,295
2017-06-06T05:13:20.569Z,350
2017-06-06T05:14:05.982Z,460
2017-06-06T05:15:06.061Z,995
2017-06-06T05:17:05.758Z,475
2017-06-06T05:18:05.785Z,485
2017-06-06T05:19:05.809Z,415
2017-06-06T05:20:06.142Z,375
2017-06-06T05:21:06.176Z,350
2017-06-06T05:22:05.896Z,540
2017-06-06T05:23:20.845Z,845
2017-06-06T05:24:20.568Z,1320
2017-06-06T05:25:35.520Z,480
2017-06-06T05:26:35.545Z,1370
2017-06-06T05:27:06.339Z,955
2017-06-06T05:28:06.370Z,1095
2017-06-06T05:29:21.019Z,990
2017-06-06T05:30:06.481Z,385
2017-06-06T05:31:06.490Z,675
2017-06-06T05:32:06.487Z,1060
2017-06-06T05:33:06.513Z,1175
2017-06-06T05:35:06.575Z,460
2017-06-06T05:36:06.302Z,1310
2017-06-06T05:37:06.635Z,1360
2017-06-06T05:38:06.667Z,290
2017-06-06T05:39:06.700Z,425
2017-06-06T05:40:21.346Z,415
2017-06-06T05:41:06.763Z,710
2017-06-06T05:42:06.794Z,895
2017-06-06T05:43:06.826Z,1395
2017-06-06T05:44:21.472Z,1320
2017-06-06T05:45:06.888Z,885
2017-06-06T05:47:06.951Z,430
2017-06-06T05:48:06.978Z,1345
2017-06-06T05:49:06.710Z,1210
2017-06-06T05:50:07.049Z,1360
2017-06-06T05:51:21.697Z,1435
2017-06-06T05:52:07.113Z,1220
2017-06-06T05:53:21.761Z,720
2017-06-06T05:54:07.174Z,1295
2017-06-06T05:55:21.825Z,1410
2017-06-06T05:56:21.864Z,1365
2017-06-06T05:57:07.270Z,1365
2017-06-06T05:58:07.317Z,425
2017-06-06T05:59:07.040Z,655
2017-06-06T06:00:07.375Z,1045
2017-06-06T06:01:07.407Z,945
2017-06-06T06:02:07.139Z,1035
2017-06-06T06:03:07.176Z,775
2017-06-06T06:04:07.205Z,1130
2017-06-06T06:05:07.544Z,1220
2017-06-06T06:06:07.584Z,1340
2017-06-06T06:07:07.309Z,1395
2017-06-06T06:08:07.653Z,1400
2017-06-06T06:09:36.925Z,1400
2017-06-06T06:10:07.110Z,1315
2017-06-06T06:11:07.448Z,1410
2017-06-06T06:12:22.405Z,640
2017-06-06T06:13:37.061Z,520
2017-06-06T06:14:07.861Z,510
2017-06-06T06:15:22.512Z,430
2017-06-06T06:16:22.549Z,790
2017-06-06T06:17:22.589Z,425
2017-06-06T06:18:22.614Z,405
2017-06-06T06:19:08.034Z,350
2017-06-06T06:20:22.689Z,300
2017-06-06T06:22:08.133Z,320
2017-06-06T06:23:08.166Z,340
2017-06-06T06:24:08.199Z,330
2017-06-06T06:25:22.549Z,425
2017-06-06T06:26:07.964Z,335
2017-06-06T06:27:08.348Z,580
2017-06-06T06:28:08.332Z,845
2017-06-06T06:29:08.367Z,420
2017-06-06T06:30:23.015Z,275
2017-06-06T06:31:08.426Z,295
2017-06-06T06:32:23.078Z,245
2017-06-06T06:33:08.499Z,245
2017-06-06T06:34:08.521Z,270
2017-06-06T06:35:08.556Z,300
2017-06-06T06:36:08.590Z,260
2017-06-06T06:37:08.622Z,685
2017-06-06T06:38:08.653Z,580
2017-06-06T06:39:08.378Z,310
2017-06-06T06:40:23.333Z,460
2017-06-06T06:41:08.744Z,835
2017-06-06T06:42:08.772Z,385
2017-06-06T06:43:08.812Z,530
2017-06-06T06:44:08.537Z,570
2017-06-06T06:45:08.873Z,380
2017-06-06T06:46:08.953Z,380
2017-06-06T06:47:08.929Z,350
2017-06-06T06:48:23.582Z,460
2017-06-06T06:49:08.686Z,505
2017-06-06T06:50:09.026Z,735
2017-06-06T06:51:08.755Z,1140
2017-06-06T06:52:08.932Z,1320
2017-06-06T06:56:08.904Z,1225
2017-06-06T06:57:09.246Z,1010
2017-06-06T06:58:09.273Z,935
2017-06-06T06:59:09.309Z,405
2017-06-06T07:00:09.356Z,525
2017-06-06T07:01:23.994Z,1080
2017-06-06T07:02:09.410Z,745
2017-06-06T07:03:09.441Z,535
2017-06-06T07:04:24.087Z,995
2017-06-06T07:05:09.503Z,955
2017-06-06T07:06:24.163Z,540
2017-06-06T07:07:09.568Z,645
2017-06-06T07:08:09.601Z,285
2017-06-06T07:10:09.668Z,240
2017-06-06T07:12:09.435Z,225
2017-06-06T07:13:24.389Z,225
2017-06-06T07:14:09.851Z,225
2017-06-06T07:15:09.834Z,225
2017-06-06T07:16:09.873Z,225
2017-06-06T07:17:39.138Z,230
2017-06-06T07:18:09.935Z,230
2017-06-06T07:19:24.583Z,240
2017-06-06T07:20:24.616Z,240
2017-06-06T07:21:10.030Z,240
2017-06-06T07:22:10.068Z,240
2017-06-06T07:24:10.121Z,210
2017-06-06T07:25:24.479Z,190
2017-06-06T07:26:10.233Z,185
2017-06-06T07:27:10.217Z,175
2017-06-06T07:28:10.250Z,165
2017-06-06T07:29:10.274Z,155
2017-06-06T07:30:10.012Z,145
2017-06-06T07:31:10.033Z,140
2017-06-06T07:32:24.988Z,145
2017-06-06T07:33:10.449Z,140
2017-06-06T07:34:10.429Z,140
2017-06-06T07:35:10.456Z,140
2017-06-06T07:36:10.489Z,135
2017-06-06T07:37:10.214Z,130
2017-06-06T07:38:10.547Z,125
2017-06-06T07:39:10.577Z,120
2017-06-06T07:40:10.307Z,110
2017-06-06T07:41:10.637Z,105
2017-06-06T07:42:10.362Z,100
2017-06-06T07:43:10.390Z,95
2017-06-06T07:44:10.424Z,95
2017-06-06T07:45:10.496Z,95
2017-06-06T07:46:10.800Z,100
2017-06-06T07:47:10.845Z,105
2017-06-06T07:48:25.455Z,120
2017-06-06T07:49:10.871Z,130
2017-06-06T07:51:25.547Z,140
2017-06-06T07:52:25.571Z,140
2017-06-06T07:53:10.679Z,135
2017-06-06T07:54:10.705Z,135
2017-06-06T07:55:11.078Z,135
2017-06-06T07:56:10.762Z,135
2017-06-06T07:57:10.794Z,135
2017-06-06T07:58:10.820Z,135
2017-06-06T07:59:11.153Z,135
2017-06-06T08:00:11.387Z,130
2017-06-06T08:01:25.827Z,130
2017-06-06T08:02:11.237Z,125
2017-06-06T08:03:25.885Z,120
2017-06-06T08:04:11.295Z,110
2017-06-06T08:05:11.326Z,105
2017-06-06T08:06:11.348Z,105
2017-06-06T08:07:25.691Z,100
2017-06-06T08:08:11.113Z,100
2017-06-06T08:09:11.435Z,105
2017-06-06T08:10:11.157Z,110
2017-06-06T08:11:11.187Z,115
2017-06-06T08:12:10.911Z,115
2017-06-06T08:13:25.862Z,115
2017-06-06T08:14:11.623Z,115
2017-06-06T08:15:26.219Z,115
2017-06-06T08:16:11.329Z,120
2017-06-06T08:17:11.662Z,125
2017-06-06T08:18:11.685Z,125
2017-06-06T08:19:26.332Z,130
2017-06-06T08:20:40.990Z,125
2017-06-06T08:21:11.820Z,125
2017-06-06T08:22:11.800Z,125
2017-06-06T08:23:26.443Z,125
2017-06-06T08:24:11.851Z,125
2017-06-06T08:25:11.879Z,120
2017-06-06T08:26:11.958Z,120
2017-06-06T08:27:11.962Z,115
2017-06-06T08:29:11.989Z,100
2017-06-06T08:30:26.636Z,100
2017-06-06T08:31:12.246Z,95
2017-06-06T08:32:11.768Z,95
2017-06-06T08:33:12.098Z,95
2017-06-06T08:34:26.780Z,95
2017-06-06T08:36:11.591Z,95
2017-06-06T08:37:12.211Z,95
2017-06-06T08:38:11.930Z,95
2017-06-06T08:39:26.579Z,100
2017-06-06T08:40:11.992Z,105
2017-06-06T08:41:12.369Z,110
2017-06-06T08:43:12.375Z,115
2017-06-06T08:45:12.429Z,120
2017-06-06T08:46:12.205Z,125
2017-06-06T08:47:12.484Z,130
2017-06-06T08:48:12.520Z,135
2017-06-06T08:49:12.232Z,135
2017-06-06T08:50:27.184Z,140
2017-06-06T08:51:27.259Z,135
2017-06-06T08:52:12.624Z,135
2017-06-06T08:53:12.647Z,135
2017-06-06T08:54:27.294Z,125
2017-06-06T08:56:12.730Z,120
2017-06-06T08:57:12.758Z,115
2017-06-06T08:58:12.480Z,105
2017-06-06T08:59:12.811Z,100
2017-06-06T09:00:12.537Z,95
2017-06-06T09:01:12.869Z,95
2017-06-06T09:02:12.591Z,90
2017-06-06T09:03:12.618Z,85
2017-06-06T09:04:12.351Z,85
2017-06-06T09:05:12.673Z,80
2017-06-06T09:06:12.703Z,80
2017-06-06T09:07:27.348Z,80
2017-06-06T09:08:13.070Z,85
2017-06-06T09:09:27.401Z,90
2017-06-06T09:10:27.733Z,95
2017-06-06T09:11:27.757Z,95
2017-06-06T09:12:12.865Z,95
2017-06-06T09:13:13.196Z,100
2017-06-06T09:14:12.916Z,100
2017-06-06T09:15:13.258Z,100
2017-06-06T09:17:13.053Z,100
2017-06-06T09:18:12.728Z,100
2017-06-06T09:19:13.059Z,95
2017-06-06T09:20:13.388Z,90
2017-06-06T09:21:13.415Z,90
2017-06-06T09:22:42.374Z,80
2017-06-06T09:23:13.468Z,80
2017-06-06T09:24:13.495Z,75
2017-06-06T09:25:13.217Z,75
2017-06-06T09:26:27.866Z,80
2017-06-06T09:27:27.888Z,85
2017-06-06T09:28:28.220Z,100
2017-06-06T09:29:13.326Z,100
2017-06-06T09:30:13.354Z,110
2017-06-06T09:31:12.776Z,120
2017-06-06T09:32:28.381Z,130
2017-06-06T09:33:13.736Z,130
2017-06-06T09:34:13.470Z,130
2017-06-06T09:35:28.411Z,125
2017-06-06T09:36:28.439Z,125
2017-06-06T09:37:13.848Z,125
2017-06-06T09:38:13.959Z,130
2017-06-06T09:39:28.522Z,140
2017-06-06T09:41:13.954Z,145
2017-06-06T09:42:28.597Z,140
2017-06-06T09:43:13.705Z,140
2017-06-06T09:44:14.038Z,135
2017-06-06T09:45:14.062Z,140
2017-06-06T09:46:14.095Z,145
2017-06-06T09:48:14.147Z,190
2017-06-06T09:49:13.868Z,210
2017-06-06T09:50:43.438Z,225
2017-06-06T09:51:28.542Z,220
2017-06-06T09:52:14.251Z,210
2017-06-06T09:53:13.977Z,205
2017-06-06T09:54:14.306Z,210
2017-06-06T09:55:28.956Z,290
2017-06-06T09:56:14.398Z,275
2017-06-06T09:57:14.088Z,250
2017-06-06T09:58:29.036Z,375
2017-06-06T09:59:14.453Z,285
2017-06-06T10:00:14.485Z,315
2017-06-06T10:01:14.514Z,310
2017-06-06T10:03:14.572Z,400
2017-06-06T10:04:14.280Z,395
2017-06-06T10:05:14.612Z,345
2017-06-06T10:06:14.650Z,370
2017-06-06T10:07:14.370Z,255
2017-06-06T10:08:29.314Z,230
2017-06-06T10:09:14.438Z,225
2017-06-06T10:11:14.788Z,220
2017-06-06T10:12:14.864Z,205
2017-06-06T10:14:29.537Z,190
2017-06-06T10:15:14.594Z,190
2017-06-06T10:17:15.257Z,190
2017-06-06T10:18:14.681Z,200
2017-06-06T10:19:14.406Z,220
2017-06-06T10:20:29.665Z,230
2017-06-06T10:21:15.087Z,230
2017-06-06T10:22:29.720Z,230
2017-06-06T10:23:29.460Z,220
2017-06-06T10:24:14.854Z,215
2017-06-06T10:25:29.802Z,210
2017-06-06T10:26:14.912Z,220
2017-06-06T10:27:14.635Z,260
2017-06-06T10:28:14.970Z,230
2017-06-06T10:29:29.928Z,240
2017-06-06T10:30:15.030Z,240
2017-06-06T10:31:15.365Z,240
2017-06-06T10:32:15.080Z,245
2017-06-06T10:33:15.415Z,240
2017-06-06T10:34:15.142Z,235
2017-06-06T10:35:15.169Z,235
2017-06-06T10:36:30.123Z,245
2017-06-06T10:37:15.528Z,265
2017-06-06T10:38:29.881Z,275
2017-06-06T10:39:30.208Z,315
2017-06-06T10:40:30.238Z,310
2017-06-06T10:41:30.268Z,275
2017-06-06T10:42:44.912Z,320
2017-06-06T10:43:15.402Z,295
2017-06-06T10:44:15.738Z,365
2017-06-06T10:45:15.766Z,365
2017-06-06T10:46:15.789Z,365
2017-06-06T10:47:15.823Z,355
2017-06-06T10:49:15.274Z,345
2017-06-06T10:50:15.910Z,295
2017-06-06T10:52:15.666Z,310
2017-06-06T10:53:15.998Z,350
2017-06-06T10:54:15.418Z,335
2017-06-06T10:55:15.762Z,265
2017-06-06T10:56:15.834Z,330
2017-06-06T10:57:30.735Z,255
2017-06-06T10:58:16.144Z,265
2017-06-06T10:59:16.178Z,350
2017-06-06T11:00:15.903Z,340
2017-06-06T11:01:30.861Z,265
2017-06-06T11:02:15.962Z,265
2017-06-06T11:03:15.686Z,275
2017-06-06T11:04:15.769Z,265
2017-06-06T11:05:16.085Z,270
2017-06-06T11:07:16.112Z,260
2017-06-06T11:08:30.457Z,280
2017-06-06T11:09:16.204Z,340
2017-06-06T11:10:16.504Z,300
2017-06-06T11:11:16.529Z,345
2017-06-06T11:12:16.568Z,305
2017-06-06T11:13:16.591Z,305
2017-06-06T11:14:16.015Z,315
2017-06-06T11:15:31.271Z,305
2017-06-06T11:16:16.083Z,295
2017-06-06T11:19:16.161Z,250
2017-06-06T11:20:16.848Z,240
2017-06-06T11:22:16.258Z,230
2017-06-06T11:23:16.905Z,235
2017-06-06T11:24:31.241Z,225
2017-06-06T11:25:16.342Z,225
2017-06-06T11:26:16.672Z,225
2017-06-06T11:27:31.624Z,225
2017-06-06T11:28:31.375Z,220
2017-06-06T11:29:16.462Z,225
2017-06-06T11:30:31.406Z,230
2017-06-06T11:31:17.127Z,230
2017-06-06T11:32:16.847Z,225
2017-06-06T11:33:31.552Z,220
2017-06-06T11:34:31.522Z,220
2017-06-06T11:35:16.935Z,215
2017-06-06T11:36:16.659Z,210
2017-06-06T11:37:16.996Z,210
2017-06-06T11:38:17.328Z,205
2017-06-06T11:39:32.008Z,205
2017-06-06T11:40:17.081Z,205
2017-06-06T11:41:32.037Z,200
2017-06-06T11:42:31.460Z,200
2017-06-06T11:43:32.091Z,195
2017-06-06T11:44:17.199Z,190
2017-06-06T11:45:32.180Z,185
2017-06-06T11:46:16.956Z,185
2017-06-06T11:47:17.290Z,180
2017-06-06T11:48:17.316Z,175
2017-06-06T11:49:32.263Z,165
2017-06-06T11:52:17.470Z,175
2017-06-06T11:53:17.458Z,175
2017-06-06T11:55:17.825Z,170
2017-06-06T11:56:17.855Z,175
2017-06-06T11:57:32.548Z,125
2017-06-06T11:58:31.917Z,175
2017-06-06T11:59:17.024Z,175
2017-06-06T12:00:32.027Z,170
2017-06-06T12:01:32.005Z,170
2017-06-06T12:02:32.337Z,165
2017-06-06T12:03:18.060Z,170
2017-06-06T12:04:47.018Z,175
2017-06-06T12:05:18.107Z,175
2017-06-06T12:07:18.166Z,175
2017-06-06T12:08:18.193Z,175
2017-06-06T12:09:17.923Z,180
2017-06-06T12:10:17.954Z,175
2017-06-06T12:11:32.598Z,180
2017-06-06T12:12:18.313Z,175
2017-06-06T12:13:18.391Z,185
2017-06-06T12:14:32.984Z,190
2017-06-06T12:15:18.095Z,190
2017-06-06T12:16:32.739Z,190
2017-06-06T12:17:18.149Z,190
2017-06-06T12:18:18.177Z,190
2017-06-06T12:19:18.509Z,185
2017-06-06T12:20:18.235Z,190
2017-06-06T12:21:18.273Z,185
2017-06-06T12:22:18.292Z,115
2017-06-06T12:23:18.631Z,115
2017-06-06T12:24:18.651Z,185
2017-06-06T12:25:18.681Z,140
2017-06-06T12:26:18.711Z,185
2017-06-06T12:27:18.782Z,195
2017-06-06T12:28:33.413Z,200
2017-06-06T12:29:18.530Z,200
2017-06-06T12:30:18.581Z,210
2017-06-06T12:31:18.889Z,215
2017-06-06T12:32:18.579Z,210
2017-06-06T12:33:18.609Z,205
2017-06-06T12:34:33.255Z,200
2017-06-06T12:35:18.666Z,200
2017-06-06T12:36:33.314Z,200
2017-06-06T12:37:18.723Z,200
2017-06-06T12:38:18.747Z,200
2017-06-06T12:39:19.082Z,200
2017-06-06T12:40:19.161Z,200
2017-06-06T12:41:19.145Z,180
2017-06-06T12:42:18.561Z,190
2017-06-06T12:43:19.202Z,195
2017-06-06T12:44:33.545Z,200
2017-06-06T12:45:18.954Z,130
2017-06-06T12:46:33.600Z,205
2017-06-06T12:47:33.933Z,205
2017-06-06T12:49:19.370Z,220
2017-06-06T12:50:19.094Z,155
2017-06-06T12:51:34.047Z,135
2017-06-06T12:52:34.082Z,135
2017-06-06T12:53:19.184Z,135
2017-06-06T12:54:19.517Z,195
2017-06-06T12:55:19.245Z,175
2017-06-06T12:56:19.275Z,165
2017-06-06T12:57:19.303Z,230
2017-06-06T12:58:19.327Z,155
2017-06-06T12:59:19.356Z,235
2017-06-06T13:00:19.387Z,200
2017-06-06T13:01:19.717Z,210
2017-06-06T13:02:19.445Z,210
2017-06-06T13:03:19.829Z,220
2017-06-06T13:04:19.506Z,155
2017-06-06T13:05:49.070Z,150
2017-06-06T13:06:34.484Z,150
2017-06-06T13:07:19.905Z,165
2017-06-06T13:08:33.935Z,150
2017-06-06T13:09:19.346Z,205
2017-06-06T13:11:20.007Z,135
2017-06-06T13:12:20.042Z,135
2017-06-06T13:14:20.095Z,145
2017-06-06T13:15:34.745Z,145
2017-06-06T13:16:20.151Z,145
2017-06-06T13:17:20.182Z,155
2017-06-06T13:18:34.830Z,220
2017-06-06T13:19:19.936Z,215
2017-06-06T13:20:20.271Z,210
2017-06-06T13:21:20.303Z,210
2017-06-06T13:22:19.727Z,210
2017-06-06T13:23:34.976Z,205
2017-06-06T13:25:20.162Z,220
2017-06-06T13:26:20.448Z,230
2017-06-06T13:27:20.476Z,155
2017-06-06T13:28:20.196Z,225
2017-06-06T13:31:20.643Z,135
2017-06-06T13:32:34.933Z,130
2017-06-06T13:33:20.344Z,125
2017-06-06T13:34:35.294Z,110
2017-06-06T13:35:20.706Z,110
2017-06-06T13:36:20.737Z,110
2017-06-06T13:37:20.763Z,115
2017-06-06T13:38:20.797Z,125
2017-06-06T13:39:35.445Z,135
2017-06-06T13:40:20.851Z,145
2017-06-06T13:41:20.880Z,180
2017-06-06T13:42:20.661Z,220
2017-06-06T13:43:20.941Z,160
2017-06-06T13:44:20.974Z,145
2017-06-06T13:45:21.047Z,140
2017-06-06T13:46:21.045Z,140
2017-06-06T13:47:20.807Z,135
2017-06-06T13:48:21.084Z,150
2017-06-06T13:49:35.732Z,145
2017-06-06T13:50:20.838Z,155
2017-06-06T13:51:35.491Z,160
2017-06-06T13:52:21.200Z,165
2017-06-06T13:53:21.281Z,170
2017-06-06T13:54:21.259Z,175
2017-06-06T13:55:21.293Z,190
2017-06-06T13:57:21.348Z,215
2017-06-06T13:58:21.088Z,225
2017-06-06T13:59:21.114Z,250
2017-06-06T14:00:21.208Z,260
2017-06-06T14:02:35.809Z,275
2017-06-06T14:03:21.519Z,275
2017-06-06T14:04:21.247Z,260
2017-06-06T14:05:21.581Z,215
2017-06-06T14:06:21.611Z,210
2017-06-06T14:07:36.263Z,215
2017-06-06T14:08:21.676Z,215
2017-06-06T14:09:21.395Z,210
2017-06-06T14:10:21.425Z,215
2017-06-06T14:11:36.377Z,235
2017-06-06T14:12:21.790Z,230
2017-06-06T14:13:21.817Z,255
2017-06-06T14:14:21.543Z,215
2017-06-06T14:15:21.874Z,230
2017-06-06T14:16:21.909Z,250
2017-06-06T14:17:21.939Z,210
2017-06-06T14:18:21.971Z,225
2017-06-06T14:19:21.691Z,230
2017-06-06T14:20:36.645Z,230
2017-06-06T14:21:22.057Z,225
2017-06-06T14:22:22.087Z,225
2017-06-06T14:23:22.125Z,215
2017-06-06T14:24:36.469Z,225
2017-06-06T14:25:21.872Z,230
2017-06-06T14:26:36.524Z,195
2017-06-06T14:27:36.551Z,220
2017-06-06T14:28:22.267Z,215
2017-06-06T14:29:22.294Z,200
2017-06-06T14:30:22.325Z,185
2017-06-06T14:31:22.358Z,195
2017-06-06T14:32:22.093Z,180
2017-06-06T14:33:22.115Z,180
2017-06-06T14:34:36.763Z,170
2017-06-06T14:35:37.103Z,175
2017-06-06T14:36:22.201Z,160
2017-06-06T14:37:22.268Z,155
2017-06-06T14:38:22.263Z,150
2017-06-06T14:39:36.914Z,145
2017-06-06T14:40:22.627Z,140
2017-06-06T14:41:22.657Z,140
2017-06-06T14:42:37.308Z,130
2017-06-06T14:43:37.333Z,125
2017-06-06T14:45:22.832Z,120
2017-06-06T14:46:22.814Z,115
2017-06-06T14:47:22.840Z,110
2017-06-06T14:48:22.565Z,105
2017-06-06T14:49:22.898Z,105
2017-06-06T14:50:22.625Z,105
2017-06-06T14:51:37.575Z,105
2017-06-06T14:52:37.303Z,105
2017-06-06T14:53:52.255Z,105
2017-06-06T14:54:37.661Z,105
2017-06-06T14:55:52.009Z,110
2017-06-06T14:56:37.422Z,115
2017-06-06T14:57:23.133Z,115
2017-06-06T14:58:23.166Z,120